Detall de PIREP

Printer-friendly versionPDF version

[2013/03/23 18:18:00]
Flight IATA:CT1006
Pilot Number:026
Company ICAO:CAT
Aircraft Type:DC85/A
PAX:0
Aircraft Registration:CARGO
Departing Airport: LEAL
Destination Airport: LICJ
Alternate Airport:LICA
Online: VATSIM
Route:MITOS/N0330F260 UN851 MHN UM603 MORSS/N0330F250 UM603 ARSIK UM731 TEKSA UM732 CAR UM871 KAPIL
Flight Level:F350
No Slew and time accel
No pause
Crash detect
Detect pilot in Cockpit between each 30 and 45 minutes
18:18 Zero fuel Weight: 209756 Lbs, Fuel Weight: 36003 Lbs
18:18 VATSIM:LEAL 231800Z 00000KT CAVOK 15/11 Q1002 NOSIG
18:18 VATSIM:LICJ 231750Z VRB03KT CAVOK 15/11 Q1008
18:18 VOICE CATALONIAN / ALMOGAVERS ROUTE
18:22 Parking Brakes off
18:29 Take-off
18:29 Take off Weight: 244634 Lbs
18:29 Wind: 195º @ 000 Knots Heading: 099º
18:29 POS N38º 16´ 51´´ W000º 32´ 58´´
18:29 Gear Up: 168 Knots
18:29 Flaps:2 at 168 Knots
18:30 Flaps:1 at 201 Knots
18:30 Flaps:0 at 192 Knots
18:44 Wind:219º@024 Knots Heading: 078º Ground Speed: 501 Knots Altitude 30921 ft
18:59 Wind:061º@014 Knots Heading: 059º Ground Speed: 490 Knots Altitude 33667 ft
19:14 Wind:051º@013 Knots Heading: 073º Ground Speed: 477 Knots Altitude 33736 ft
19:18 TOC
19:18 Fuel Weight: 20309 Lb
19:29 Wind:022º@015 Knots Heading: 164º Ground Speed: 502 Knots Altitude 34862 ft
19:44 Wind:059º@054 Knots Heading: 103º Ground Speed: 448 Knots Altitude 34849 ft
19:44 TOD
19:44 Fuel Weight: 14222 Lb
19:59 Wind:111º@031 Knots Heading: 110º Ground Speed: 326 Knots Altitude 17463 ft
20:04 Flaps:1 at 270 Knots
20:04 Flaps:0 at 270 Knots
20:05 Gear Down: 279 Knots
20:05 Gear Up: 220 Knots
20:08 Flaps:1 at 217 Knots
20:09 Flaps:2 at 200 Knots
20:09 Gear Down: 199 Knots
20:10 Flaps:3 at 198 Knots
20:11 Flaps:4 at 176 Knots
20:11 Flaps:5 at 156 Knots
20:11 TouchDown:Rate -393 ft/min Speed: 133 Knots
20:12 VATSIM:LICJ 231950Z 04005KT 020V090 CAVOK 14/12 Q1007
20:12 Land
20:12 Wind:056º@008 Knots
20:12 Heading: 067º
20:12 Flight Duration: 01:43
20:12 Landing Weight: 220969 Lbs
20:12 POS N38º 10´ 40´´ E013º 05´ 50´´
20:17 Parking brakes on
20:17 Block to Block Duration: 01:55
20:17 Final Fuel: 10720 Lbls
20:17 Spent Fuel: 25282 Lbls
20:17 Flight Length: 645 NM
20:17 TOD Land Length: 63 NM

Exportar CSV

Powered by Drupal - Modified by Danger4k